Pagina principale
METAR-TAF:

METAR-TAF

Aeroporti :

Aeroporto Internazionale di Dublino

Dublino, Irlanda

latitudine: 53-26N, longitudine: 006-15W, altezza: 68 m

Osservazione

Il bollettino è stato emesso 13 minuti fa, alle 20:30 UTC
Vento 15 kt da est
Temperature 8°C
Umidità 87%
Pressione 1027 hPa
Visibilità 10 km o più
Poco nuvoloso ad un'altezza di 1200 ft

METAR: EIDW 182030Z 09015KT 9999 FEW012 08/06 Q1027 NOSIG

Ora: 20:43 (20:43 UTC)

Previsione

Il bollettino è stato emesso 3 ore e 43 minuti fa, alle 17:00 UTC
Previsione valida dal 18 alle 18 UTC al 19 alle 18 UTC
Vento 12 kt da est
Visibilità 10 km o più
Poco nuvoloso ad un'altezza di 1500 ft
Temporaneamente
dal 19 alle 08 UTC al 19 alle 13 UTC
Vento 15 kt da est con raffiche fino a 25 kt

TAF: EIDW 181700Z 1818/1918 10012KT 9999 FEW015 TEMPO 1908/1913 10015G25KT

Osservazioni e previsioni meteorologiche di più di 4000 aeroporti (messaggi METAR e TAF).

Le stazioni disponibili sono rappresentate dai dischi gialli e rossi sulla carta.

Puntare il mouse per vedere il nome della stazione.

Clicca sopra per visualizzare le osservazioni e previsioni meteorologiche.

Per cambiare la mappa : fare clic sui pulsanti verdi con una croce nera per ingrandire, il pulsante verde con un trattino per diminuire, o sulla freccia verde per le mappe adiacenti.


METAR-TAF: